createdAt,value
2023-04-23T00:01:17.999Z,58.10
2023-04-23T00:03:50.331Z,58.00
2023-04-23T00:06:20.080Z,57.76
2023-04-23T00:08:53.549Z,57.68
2023-04-23T00:11:31.994Z,57.71
2023-04-23T00:14:03.370Z,57.95
2023-04-23T00:16:35.828Z,58.07
2023-04-23T00:19:07.973Z,58.35
2023-04-23T00:21:39.743Z,58.74
2023-04-23T00:24:29.010Z,58.89
2023-04-23T00:27:05.437Z,58.89
2023-04-23T00:29:37.347Z,59.31
2023-04-23T00:32:17.295Z,59.54
2023-04-23T00:34:52.091Z,59.85
2023-04-23T00:37:25.521Z,59.89
2023-04-23T00:40:07.615Z,59.83
2023-04-23T00:42:42.351Z,59.84
2023-04-23T00:45:17.181Z,59.84
2023-04-23T00:47:49.671Z,59.83
2023-04-23T00:50:20.894Z,60.08
2023-04-23T00:52:49.798Z,60.23
2023-04-23T00:55:24.016Z,60.45
2023-04-23T00:57:59.857Z,60.49
2023-04-23T01:00:46.556Z,60.49
2023-04-23T01:03:22.074Z,60.58
2023-04-23T01:06:00.147Z,60.86
2023-04-23T01:08:36.905Z,61.36
2023-04-23T01:11:10.801Z,61.43
2023-04-23T01:13:40.212Z,61.77
2023-04-23T01:16:15.290Z,62.07
2023-04-23T01:18:52.025Z,62.35
2023-04-23T01:21:21.236Z,62.47
2023-04-23T01:23:52.777Z,62.55
2023-04-23T01:26:27.904Z,62.56
2023-04-23T01:28:58.530Z,62.46
2023-04-23T01:31:31.301Z,62.67
2023-04-23T01:34:03.790Z,62.74
2023-04-23T01:36:33.520Z,62.95
2023-04-23T01:39:13.855Z,62.96
2023-04-23T01:41:45.579Z,63.08
2023-04-23T01:44:17.281Z,62.97
2023-04-23T01:46:48.530Z,62.87
2023-04-23T01:49:20.380Z,62.96
2023-04-23T01:51:52.959Z,62.77
2023-04-23T01:54:21.733Z,62.70
2023-04-23T01:56:54.823Z,62.69
2023-04-23T01:59:29.255Z,62.46
2023-04-23T02:02:05.598Z,62.57
2023-04-23T02:04:39.604Z,62.51
2023-04-23T02:07:09.238Z,62.60
2023-04-23T02:09:41.318Z,62.62
2023-04-23T02:12:12.642Z,62.63
2023-04-23T02:14:47.170Z,62.83
2023-04-23T02:17:25.089Z,63.07
2023-04-23T02:19:59.617Z,63.15
2023-04-23T02:22:31.753Z,63.33
2023-04-23T02:25:07.731Z,63.46
2023-04-23T02:27:42.586Z,63.34
2023-04-23T02:30:23.133Z,63.26
2023-04-23T02:32:59.544Z,63.31
2023-04-23T02:35:31.772Z,63.36
2023-04-23T02:38:10.993Z,63.57
2023-04-23T02:40:44.691Z,63.50
2023-04-23T02:43:22.798Z,63.78
2023-04-23T02:45:54.594Z,63.91
2023-04-23T02:48:29.927Z,64.09
2023-04-23T02:51:06.677Z,64.30
2023-04-23T02:53:38.326Z,64.50
2023-04-23T02:56:12.888Z,64.65
2023-04-23T02:59:16.312Z,64.51
2023-04-23T03:01:52.138Z,64.67
2023-04-23T03:04:29.133Z,64.96
2023-04-23T03:06:58.088Z,65.30
2023-04-23T03:09:34.150Z,65.52
2023-04-23T03:12:08.075Z,65.47
2023-04-23T03:14:42.433Z,65.33
2023-04-23T03:17:14.748Z,65.27
2023-04-23T03:19:43.721Z,65.17
2023-04-23T03:22:17.225Z,65.57
2023-04-23T03:25:01.194Z,65.65
2023-04-23T03:27:32.630Z,65.79
2023-04-23T03:30:04.461Z,65.80
2023-04-23T03:32:36.274Z,65.89
2023-04-23T03:35:09.777Z,65.94
2023-04-23T03:37:53.173Z,65.95
2023-04-23T03:40:25.251Z,66.02
2023-04-23T03:43:08.150Z,65.94
2023-04-23T03:45:58.101Z,65.90
2023-04-23T03:48:30.313Z,66.12
2023-04-23T03:51:02.184Z,66.20
2023-04-23T03:53:46.950Z,66.18
2023-04-23T03:56:40.614Z,66.42
2023-04-23T03:59:37.294Z,66.90
2023-04-23T04:02:13.807Z,66.94
2023-04-23T04:04:46.229Z,66.84
2023-04-23T04:07:32.134Z,66.82
2023-04-23T04:10:05.252Z,66.80
2023-04-23T04:12:37.053Z,66.79
2023-04-23T04:15:12.746Z,66.68
2023-04-23T04:17:46.290Z,66.78
2023-04-23T04:20:14.983Z,66.76
2023-04-23T04:22:47.055Z,66.47
2023-04-23T04:25:18.573Z,66.20
2023-04-23T04:27:49.635Z,66.32
2023-04-23T04:30:18.118Z,66.31
2023-04-23T04:32:52.951Z,66.17
2023-04-23T04:35:22.242Z,66.09
2023-04-23T04:37:54.212Z,65.77
2023-04-23T04:40:23.333Z,65.82
2023-04-23T04:42:53.239Z,65.75
2023-04-23T04:45:25.922Z,65.93
2023-04-23T04:48:10.553Z,65.97
2023-04-23T04:50:51.217Z,65.95
2023-04-23T04:53:31.278Z,66.05
2023-04-23T04:56:20.274Z,65.90
2023-04-23T04:58:52.094Z,65.43
2023-04-23T05:01:31.172Z,65.30
2023-04-23T05:04:05.730Z,65.25
2023-04-23T05:06:37.214Z,64.97
2023-04-23T05:09:11.006Z,64.76
2023-04-23T05:11:49.414Z,64.36
2023-04-23T05:14:18.522Z,64.24
2023-04-23T05:16:50.310Z,63.77
2023-04-23T05:19:30.439Z,63.33
2023-04-23T05:21:59.533Z,62.73
2023-04-23T05:24:31.502Z,62.22
2023-04-23T05:26:59.962Z,61.53
2023-04-23T05:29:30.911Z,61.11
2023-04-23T05:31:59.670Z,60.42
2023-04-23T05:34:28.684Z,59.92
2023-04-23T05:36:59.561Z,59.38
2023-04-23T05:39:31.571Z,58.42
2023-04-23T05:42:00.088Z,57.84
2023-04-23T05:44:31.097Z,57.35
2023-04-23T05:46:59.583Z,56.73
2023-04-23T05:49:28.299Z,56.37
2023-04-23T05:51:58.809Z,55.87
2023-04-23T05:54:27.032Z,55.37
2023-04-23T05:56:55.634Z,55.17
2023-04-23T05:59:24.761Z,55.14
2023-04-23T06:01:56.211Z,54.81
2023-04-23T06:04:25.194Z,54.35
2023-04-23T06:06:54.000Z,54.03
2023-04-23T06:09:22.359Z,53.82
2023-04-23T06:11:54.887Z,53.65
2023-04-23T06:14:23.485Z,53.63
2023-04-23T06:16:52.165Z,53.63
2023-04-23T06:19:27.548Z,53.43
2023-04-23T06:21:56.363Z,53.41
2023-04-23T06:24:24.709Z,53.07
2023-04-23T06:26:53.192Z,52.60
2023-04-23T06:29:22.214Z,52.42
2023-04-23T06:31:57.557Z,52.22
2023-04-23T06:34:26.219Z,51.71
2023-04-23T06:36:54.811Z,51.23
2023-04-23T06:39:23.175Z,50.47
2023-04-23T06:41:51.748Z,50.24
2023-04-23T06:44:24.750Z,50.07
2023-04-23T06:46:53.313Z,49.42
2023-04-23T06:49:21.814Z,49.36
2023-04-23T06:51:50.137Z,49.17
2023-04-23T06:54:18.685Z,48.84
2023-04-23T06:56:47.156Z,48.32
2023-04-23T06:59:15.276Z,48.63
2023-04-23T07:01:47.300Z,48.00
2023-04-23T07:04:16.122Z,47.81
2023-04-23T07:06:44.461Z,47.19
2023-04-23T07:09:13.268Z,47.06
2023-04-23T07:11:41.820Z,46.63
2023-04-23T07:14:10.328Z,46.21
2023-04-23T07:16:38.732Z,45.78
2023-04-23T07:19:07.102Z,45.69
2023-04-23T07:21:36.088Z,45.84
2023-04-23T07:24:07.466Z,46.02
2023-04-23T07:26:37.188Z,46.24
2023-04-23T07:29:11.263Z,46.46
2023-04-23T07:31:41.997Z,46.84
2023-04-23T07:34:10.593Z,46.92
2023-04-23T07:36:38.975Z,46.73
2023-04-23T07:39:07.196Z,46.60
2023-04-23T07:41:36.958Z,46.66
2023-04-23T07:44:05.614Z,46.15
2023-04-23T07:46:34.130Z,46.22
2023-04-23T07:49:02.899Z,45.97
2023-04-23T07:51:32.116Z,45.75
2023-04-23T07:54:00.762Z,45.70
2023-04-23T07:56:32.636Z,45.46
2023-04-23T07:59:01.234Z,45.61
2023-04-23T08:01:30.164Z,45.38
2023-04-23T08:04:00.961Z,45.16
2023-04-23T08:06:35.292Z,45.71
2023-04-23T08:09:06.699Z,45.46
2023-04-23T08:11:35.712Z,45.02
2023-04-23T08:14:03.984Z,44.57
2023-04-23T08:16:32.493Z,43.56
2023-04-23T08:19:05.301Z,43.35
2023-04-23T08:21:35.888Z,43.14
2023-04-23T08:24:07.034Z,42.93
2023-04-23T08:26:35.723Z,42.31
2023-04-23T08:29:05.560Z,42.42
2023-04-23T08:31:34.036Z,42.38
2023-04-23T08:34:02.960Z,41.84
2023-04-23T08:36:32.624Z,42.03
2023-04-23T08:39:02.148Z,41.83
2023-04-23T08:41:43.413Z,41.65
2023-04-23T08:44:22.339Z,41.92
2023-04-23T08:46:53.275Z,42.09
2023-04-23T08:49:21.943Z,41.16
2023-04-23T08:51:54.637Z,41.28
2023-04-23T08:54:28.004Z,41.45
2023-04-23T08:56:58.745Z,41.30
2023-04-23T08:59:30.147Z,41.69
2023-04-23T09:02:01.407Z,40.78
2023-04-23T09:04:31.928Z,41.43
2023-04-23T09:07:01.837Z,41.22
2023-04-23T09:09:31.312Z,40.95
2023-04-23T09:12:00.498Z,40.69
2023-04-23T09:14:29.210Z,40.90
2023-04-23T09:16:58.479Z,40.94
2023-04-23T09:19:28.308Z,41.04
2023-04-23T09:21:58.764Z,40.61
2023-04-23T09:24:27.268Z,40.57
2023-04-23T09:26:57.971Z,40.62
2023-04-23T09:29:27.070Z,40.89
2023-04-23T09:32:04.686Z,40.33
2023-04-23T09:34:36.713Z,41.16
2023-04-23T09:37:08.171Z,41.67
2023-04-23T09:39:36.738Z,41.46
2023-04-23T09:42:08.660Z,41.54
2023-04-23T09:44:37.172Z,40.96
2023-04-23T09:47:10.160Z,40.88
2023-04-23T09:49:52.892Z,41.36
2023-04-23T09:52:22.830Z,41.85
2023-04-23T09:54:51.483Z,42.42
2023-04-23T09:57:21.025Z,42.18
2023-04-23T09:59:53.065Z,42.22
2023-04-23T10:02:29.623Z,41.42
2023-04-23T10:05:09.904Z,40.90
2023-04-23T10:07:51.671Z,41.05
2023-04-23T10:10:20.868Z,41.11
2023-04-23T10:12:55.206Z,40.42
2023-04-23T10:15:27.780Z,41.14
2023-04-23T10:17:57.156Z,40.92
2023-04-23T10:20:26.263Z,40.34
2023-04-23T10:22:57.922Z,40.18
2023-04-23T10:25:27.214Z,40.70
2023-04-23T10:27:58.924Z,41.42
2023-04-23T10:30:28.599Z,41.42
2023-04-23T10:33:01.722Z,41.17
2023-04-23T10:35:31.074Z,40.93
2023-04-23T10:38:00.271Z,40.91
2023-04-23T10:40:36.944Z,41.65
2023-04-23T10:43:06.249Z,41.03
2023-04-23T10:45:34.998Z,40.70
2023-04-23T10:48:04.744Z,41.19
2023-04-23T10:50:37.820Z,42.28
2023-04-23T10:53:21.634Z,41.30
2023-04-23T10:55:50.974Z,40.81
2023-04-23T10:58:21.191Z,41.46
2023-04-23T11:00:51.216Z,41.51
2023-04-23T11:03:44.437Z,41.36
2023-04-23T11:06:19.308Z,40.92
2023-04-23T11:08:55.255Z,40.63
2023-04-23T11:11:40.735Z,40.41
2023-04-23T11:14:15.898Z,40.67
2023-04-23T11:16:44.392Z,39.85
2023-04-23T11:19:13.031Z,40.01
2023-04-23T11:21:58.816Z,40.24
2023-04-23T11:24:29.303Z,40.45
2023-04-23T11:26:58.982Z,40.37
2023-04-23T11:29:29.027Z,40.01
2023-04-23T11:32:02.951Z,40.30
2023-04-23T11:34:33.549Z,40.08
2023-04-23T11:37:03.443Z,40.27
2023-04-23T11:39:32.765Z,40.36
2023-04-23T11:42:03.904Z,40.51
2023-04-23T11:44:32.795Z,40.71
2023-04-23T11:47:05.262Z,41.34
2023-04-23T11:49:34.267Z,41.37
2023-04-23T11:52:03.757Z,41.66
2023-04-23T11:54:33.677Z,41.50
2023-04-23T11:57:05.023Z,41.85
2023-04-23T11:59:33.265Z,41.81
2023-04-23T12:02:01.701Z,42.02
2023-04-23T12:04:32.051Z,42.48
2023-04-23T12:07:04.259Z,42.53
2023-04-23T12:09:39.536Z,42.33
2023-04-23T12:12:08.083Z,42.44
2023-04-23T12:14:36.666Z,42.49
2023-04-23T12:17:12.324Z,43.04
2023-04-23T12:19:45.049Z,43.23
2023-04-23T12:22:13.475Z,43.55
2023-04-23T12:24:54.530Z,43.89
2023-04-23T12:27:23.135Z,43.68
2023-04-23T12:30:00.944Z,44.02
2023-04-23T12:32:29.769Z,43.69
2023-04-23T12:34:58.545Z,43.26
2023-04-23T12:37:31.816Z,43.64
2023-04-23T12:40:00.292Z,43.70
2023-04-23T12:42:28.994Z,44.32
2023-04-23T12:45:07.545Z,44.00
2023-04-23T12:47:36.834Z,44.95
2023-04-23T12:50:06.287Z,45.97
2023-04-23T12:52:35.102Z,46.79
2023-04-23T12:55:05.317Z,46.56
2023-04-23T12:57:33.996Z,46.36
2023-04-23T13:00:02.760Z,46.26
2023-04-23T13:02:31.742Z,46.57
2023-04-23T13:05:01.510Z,46.95
2023-04-23T13:07:30.387Z,47.43
2023-04-23T13:09:59.836Z,47.40
2023-04-23T13:12:28.473Z,47.21
2023-04-23T13:14:58.379Z,47.27
2023-04-23T13:17:27.105Z,47.63
2023-04-23T13:19:57.317Z,47.46
2023-04-23T13:22:29.255Z,47.29
2023-04-23T13:24:58.664Z,47.13
2023-04-23T13:27:29.822Z,46.54
2023-04-23T13:29:59.107Z,45.95
2023-04-23T13:32:32.303Z,46.26
2023-04-23T13:35:03.109Z,46.15
2023-04-23T13:37:32.648Z,46.20
2023-04-23T13:40:01.849Z,45.71
2023-04-23T13:42:31.201Z,45.75
2023-04-23T13:45:00.221Z,45.69
2023-04-23T13:47:31.936Z,45.40
2023-04-23T13:50:05.501Z,45.55
2023-04-23T13:52:35.622Z,46.16
2023-04-23T13:55:04.900Z,46.27
2023-04-23T13:57:34.662Z,46.53
2023-04-23T14:00:04.651Z,46.83
2023-04-23T14:02:34.625Z,47.10
2023-04-23T14:05:04.671Z,47.39
2023-04-23T14:07:34.394Z,47.81
2023-04-23T14:10:03.209Z,47.90
2023-04-23T14:12:31.772Z,47.87
2023-04-23T14:15:00.662Z,47.68
2023-04-23T14:17:29.479Z,48.17
2023-04-23T14:19:58.669Z,48.80
2023-04-23T14:22:29.374Z,49.19
2023-04-23T14:25:03.925Z,49.06
2023-04-23T14:27:34.428Z,49.36
2023-04-23T14:30:07.531Z,49.76
2023-04-23T14:32:36.239Z,50.30
2023-04-23T14:35:05.696Z,50.26
2023-04-23T14:37:34.520Z,50.66
2023-04-23T14:40:03.939Z,51.19
2023-04-23T14:42:33.105Z,51.82
2023-04-23T14:45:02.942Z,52.53
2023-04-23T14:47:31.996Z,52.83
2023-04-23T14:50:01.858Z,52.89
2023-04-23T14:52:31.918Z,53.41
2023-04-23T14:55:01.518Z,53.67
2023-04-23T14:57:31.495Z,54.19
2023-04-23T15:00:01.301Z,54.82
2023-04-23T15:02:32.178Z,55.61
2023-04-23T15:05:01.504Z,55.93
2023-04-23T15:07:33.569Z,56.67
2023-04-23T15:10:07.158Z,57.22
2023-04-23T15:12:43.832Z,57.60
2023-04-23T15:15:30.550Z,58.32
2023-04-23T15:18:03.016Z,59.10
2023-04-23T15:20:32.866Z,59.51
2023-04-23T15:23:02.256Z,59.79
2023-04-23T15:25:33.755Z,59.77
2023-04-23T15:28:04.495Z,59.94
2023-04-23T15:30:34.456Z,60.26
2023-04-23T15:33:03.364Z,60.33
2023-04-23T15:35:32.360Z,60.78
2023-04-23T15:38:02.044Z,61.00
2023-04-23T15:40:30.958Z,61.58
2023-04-23T15:42:59.714Z,61.58
2023-04-23T15:45:28.890Z,61.48
2023-04-23T15:47:58.246Z,61.52
2023-04-23T15:50:27.636Z,61.32
2023-04-23T15:52:59.900Z,61.70
2023-04-23T15:55:30.072Z,62.08
2023-04-23T15:58:04.372Z,62.40
2023-04-23T16:00:34.251Z,62.58
2023-04-23T16:03:05.564Z,63.08
2023-04-23T16:05:36.921Z,63.26
2023-04-23T16:08:06.613Z,63.44
2023-04-23T16:10:37.646Z,63.69
2023-04-23T16:13:07.191Z,64.14
2023-04-23T16:15:36.831Z,64.39
2023-04-23T16:18:06.553Z,64.81
2023-04-23T16:20:36.453Z,65.38
2023-04-23T16:23:07.002Z,65.91
2023-04-23T16:25:37.470Z,66.23
2023-04-23T16:28:08.394Z,66.38
2023-04-23T16:30:38.153Z,66.43
2023-04-23T16:33:08.779Z,66.59
2023-04-23T16:35:38.882Z,66.79
2023-04-23T16:38:11.579Z,66.60
2023-04-23T16:40:40.856Z,66.79
2023-04-23T16:43:11.703Z,66.68
2023-04-23T16:45:41.377Z,67.36
2023-04-23T16:48:14.094Z,67.77
2023-04-23T16:50:44.671Z,68.26
2023-04-23T16:53:14.029Z,68.82
2023-04-23T16:55:45.422Z,69.09
2023-04-23T16:58:15.075Z,69.46
2023-04-23T17:00:47.251Z,69.83
2023-04-23T17:03:17.815Z,70.04
2023-04-23T17:05:55.482Z,70.29
2023-04-23T17:08:25.083Z,70.35
2023-04-23T17:10:56.321Z,70.32
2023-04-23T17:13:26.156Z,70.11
2023-04-23T17:15:54.802Z,70.20
2023-04-23T17:18:24.636Z,69.92
2023-04-23T17:20:55.168Z,70.05
2023-04-23T17:23:25.909Z,70.18
2023-04-23T17:25:55.524Z,70.06
2023-04-23T17:28:24.931Z,69.76
2023-04-23T17:30:56.152Z,69.21
2023-04-23T17:33:25.466Z,68.79
2023-04-23T17:35:56.129Z,68.64
2023-04-23T17:38:26.305Z,68.57
2023-04-23T17:40:55.629Z,68.39
2023-04-23T17:43:24.958Z,68.33
2023-04-23T17:45:54.076Z,68.56
2023-04-23T17:48:23.718Z,68.92
2023-04-23T17:50:55.837Z,69.33
2023-04-23T17:53:25.298Z,69.47
2023-04-23T17:55:58.823Z,69.66
2023-04-23T17:58:27.934Z,69.77
2023-04-23T18:00:58.030Z,69.98
2023-04-23T18:03:30.477Z,70.17
2023-04-23T18:05:59.813Z,70.45
2023-04-23T18:08:32.059Z,70.59
2023-04-23T18:11:01.365Z,70.86
2023-04-23T18:13:30.984Z,70.86
2023-04-23T18:15:59.539Z,71.09
2023-04-23T18:18:28.434Z,71.10
2023-04-23T18:20:57.760Z,71.24
2023-04-23T18:23:28.045Z,71.41
2023-04-23T18:25:57.149Z,71.37
2023-04-23T18:28:26.342Z,71.36
2023-04-23T18:31:02.843Z,71.37
2023-04-23T18:33:41.773Z,71.47
2023-04-23T18:36:22.718Z,71.46
2023-04-23T18:38:52.332Z,71.55
2023-04-23T18:41:21.840Z,71.69
2023-04-23T18:43:53.102Z,71.71
2023-04-23T18:46:23.241Z,71.90
2023-04-23T18:48:57.895Z,71.82
2023-04-23T18:51:33.776Z,72.03
2023-04-23T18:54:03.289Z,72.11
2023-04-23T18:56:35.152Z,72.22
2023-04-23T18:59:05.078Z,72.15
2023-04-23T19:01:36.916Z,72.27
2023-04-23T19:04:06.728Z,72.26
2023-04-23T19:06:35.961Z,72.25
2023-04-23T19:09:05.783Z,72.25
2023-04-23T19:11:37.171Z,72.41
2023-04-23T19:14:07.206Z,72.34
2023-04-23T19:16:37.070Z,72.50
2023-04-23T19:19:07.394Z,72.29
2023-04-23T19:21:37.040Z,72.16
2023-04-23T19:24:06.654Z,72.18
2023-04-23T19:26:36.437Z,72.21
2023-04-23T19:29:05.591Z,72.15
2023-04-23T19:31:34.505Z,72.13
2023-04-23T19:34:03.669Z,71.98
2023-04-23T19:36:32.802Z,72.01
2023-04-23T19:39:02.247Z,71.81
2023-04-23T19:41:31.360Z,71.87
2023-04-23T19:44:00.417Z,71.86
2023-04-23T19:46:30.243Z,71.71
2023-04-23T19:48:59.889Z,71.71
2023-04-23T19:51:33.602Z,71.83
2023-04-23T19:54:03.564Z,71.76
2023-04-23T19:56:34.355Z,71.80
2023-04-23T19:59:03.476Z,71.82
2023-04-23T20:01:32.973Z,71.86
2023-04-23T20:04:02.590Z,71.72
2023-04-23T20:06:32.876Z,71.78
2023-04-23T20:09:08.110Z,71.63
2023-04-23T20:11:37.907Z,71.72
2023-04-23T20:14:07.001Z,71.81
2023-04-23T20:16:36.047Z,71.67
2023-04-23T20:19:11.785Z,71.79
2023-04-23T20:21:42.994Z,71.81
2023-04-23T20:24:15.015Z,71.78
2023-04-23T20:26:45.615Z,71.74
2023-04-23T20:29:22.518Z,71.82
2023-04-23T20:31:52.043Z,71.81
2023-04-23T20:34:22.330Z,72.02
2023-04-23T20:36:56.819Z,72.33
2023-04-23T20:39:27.057Z,72.35
2023-04-23T20:41:58.286Z,72.64
2023-04-23T20:44:28.712Z,72.72
2023-04-23T20:47:04.792Z,72.81
2023-04-23T20:49:35.155Z,72.76
2023-04-23T20:52:04.187Z,72.68
2023-04-23T20:54:34.866Z,73.05
2023-04-23T20:57:04.358Z,72.99
2023-04-23T20:59:33.538Z,73.06
2023-04-23T21:02:03.358Z,73.17
2023-04-23T21:04:36.189Z,72.96
2023-04-23T21:07:06.560Z,73.11
2023-04-23T21:09:37.008Z,72.91
2023-04-23T21:12:07.324Z,73.00
2023-04-23T21:14:37.000Z,72.98
2023-04-23T21:17:09.810Z,72.86
2023-04-23T21:19:39.874Z,72.83
2023-04-23T21:22:11.459Z,72.91
2023-04-23T21:24:41.057Z,72.93
2023-04-23T21:27:16.714Z,73.19
2023-04-23T21:29:47.183Z,73.06
2023-04-23T21:32:16.340Z,73.24
2023-04-23T21:34:45.157Z,73.44
2023-04-23T21:37:14.858Z,73.50
2023-04-23T21:39:44.536Z,73.78
2023-04-23T21:42:13.737Z,73.84
2023-04-23T21:44:43.053Z,74.15
2023-04-23T21:47:11.841Z,74.22
2023-04-23T21:49:43.100Z,74.60
2023-04-23T21:52:12.160Z,74.69
2023-04-23T21:54:40.818Z,74.52
2023-04-23T21:57:09.672Z,74.75
2023-04-23T21:59:40.099Z,74.77
2023-04-23T22:02:09.489Z,74.73
2023-04-23T22:04:38.394Z,74.98
2023-04-23T22:07:07.587Z,75.29
2023-04-23T22:09:36.261Z,75.23
2023-04-23T22:12:05.450Z,75.30
2023-04-23T22:14:34.993Z,75.36
2023-04-23T22:17:03.958Z,75.57
2023-04-23T22:19:32.434Z,75.63
2023-04-23T22:22:01.225Z,75.56
2023-04-23T22:24:30.007Z,75.44
2023-04-23T22:27:02.178Z,75.52
2023-04-23T22:29:30.803Z,75.61
2023-04-23T22:31:59.577Z,75.63
2023-04-23T22:34:28.224Z,75.63
2023-04-23T22:36:57.019Z,75.85
2023-04-23T22:39:25.804Z,75.66
2023-04-23T22:41:54.497Z,75.91
2023-04-23T22:44:22.974Z,76.15
2023-04-23T22:46:51.769Z,76.19
2023-04-23T22:49:20.244Z,76.31
2023-04-23T22:51:50.001Z,76.34
2023-04-23T22:54:18.742Z,76.18
2023-04-23T22:56:47.432Z,76.25
2023-04-23T22:59:16.117Z,76.21
2023-04-23T23:01:44.657Z,76.34
2023-04-23T23:04:13.284Z,76.58
2023-04-23T23:06:43.195Z,76.48
2023-04-23T23:09:11.784Z,76.64
2023-04-23T23:11:40.225Z,76.79
2023-04-23T23:14:08.986Z,76.79
2023-04-23T23:16:37.947Z,76.80
2023-04-23T23:19:06.734Z,76.66
2023-04-23T23:21:35.416Z,76.48
2023-04-23T23:24:04.098Z,76.51
2023-04-23T23:26:35.750Z,76.36
2023-04-23T23:29:04.967Z,76.25
2023-04-23T23:31:37.188Z,76.10
2023-04-23T23:34:06.689Z,76.30
2023-04-23T23:36:35.521Z,76.11
2023-04-23T23:39:04.795Z,76.13
2023-04-23T23:41:33.315Z,75.90
2023-04-23T23:44:01.770Z,75.95
2023-04-23T23:46:31.702Z,75.94
2023-04-23T23:49:00.696Z,75.80
2023-04-23T23:51:29.379Z,75.66
2023-04-23T23:53:58.372Z,75.57
2023-04-23T23:56:27.050Z,75.43
2023-04-23T23:58:55.877Z,75.57
